createdAt,value
2019-02-20T00:00:08.523Z,12.23
2019-02-20T00:02:38.166Z,12.03
2019-02-20T00:05:06.252Z,12.88
2019-02-20T00:07:34.276Z,12.28
2019-02-20T00:10:03.345Z,13.10
2019-02-20T00:12:31.669Z,13.50
2019-02-20T00:14:59.691Z,11.90
2019-02-20T00:17:27.705Z,12.20
2019-02-20T00:19:55.729Z,12.60
2019-02-20T00:22:23.757Z,12.25
2019-02-20T00:24:52.837Z,13.55
2019-02-20T00:27:20.851Z,13.20
2019-02-20T00:29:48.876Z,12.55
2019-02-20T00:32:16.920Z,13.83
2019-02-20T00:34:44.941Z,13.62
2019-02-20T00:37:12.963Z,13.83
2019-02-20T00:39:40.982Z,12.70
2019-02-20T00:42:09.008Z,12.78
2019-02-20T00:44:38.672Z,11.95
2019-02-20T00:47:14.031Z,11.93
2019-02-20T00:49:42.623Z,12.00
2019-02-20T00:52:18.424Z,11.33
2019-02-20T00:54:46.448Z,11.97
2019-02-20T00:57:14.464Z,12.78
2019-02-20T00:59:42.515Z,11.75
2019-02-20T01:02:10.793Z,11.90
2019-02-20T01:04:38.811Z,11.75
2019-02-20T01:07:07.199Z,11.00
2019-02-20T01:09:35.215Z,11.15
2019-02-20T01:12:03.520Z,11.75
2019-02-20T01:14:31.547Z,11.90
2019-02-20T01:16:59.570Z,11.45
2019-02-20T01:19:27.611Z,11.03
2019-02-20T01:21:55.648Z,10.65
2019-02-20T01:24:23.898Z,11.40
2019-02-20T01:26:51.982Z,11.22
2019-02-20T01:29:19.997Z,11.75
2019-02-20T01:31:48.021Z,11.63
2019-02-20T01:34:16.027Z,10.98
2019-02-20T01:36:44.070Z,12.47
2019-02-20T01:39:12.100Z,12.03
2019-02-20T01:41:40.117Z,11.45
2019-02-20T01:44:08.149Z,12.43
2019-02-20T01:46:36.170Z,11.43
2019-02-20T01:49:04.423Z,12.15
2019-02-20T01:51:32.451Z,11.53
2019-02-20T01:54:00.540Z,11.75
2019-02-20T01:56:28.598Z,11.55
2019-02-20T01:58:56.619Z,13.70
2019-02-20T02:01:24.643Z,14.40
2019-02-20T02:03:52.903Z,12.90
2019-02-20T02:06:20.928Z,11.48
2019-02-20T02:08:49.023Z,11.48
2019-02-20T02:11:17.123Z,9.60
2019-02-20T02:13:45.395Z,9.38
2019-02-20T02:16:13.431Z,11.28
2019-02-20T02:18:41.450Z,10.90
2019-02-20T02:21:09.553Z,10.38
2019-02-20T02:23:37.588Z,10.55
2019-02-20T02:26:10.907Z,10.65
2019-02-20T02:28:35.347Z,11.95
2019-02-20T02:31:03.363Z,11.57
2019-02-20T02:33:31.387Z,10.40
2019-02-20T02:35:59.414Z,10.80
2019-02-20T02:38:27.440Z,11.05
2019-02-20T02:40:55.460Z,10.72
2019-02-20T02:43:23.488Z,10.53
2019-02-20T02:45:51.500Z,10.80
2019-02-20T02:48:19.530Z,10.70
2019-02-20T02:50:47.546Z,10.45
2019-02-20T02:53:15.569Z,11.48
2019-02-20T02:55:43.584Z,11.48
2019-02-20T02:58:11.845Z,11.97
2019-02-20T03:00:39.863Z,12.95
2019-02-20T03:03:07.888Z,11.08
2019-02-20T03:05:35.903Z,10.48
2019-02-20T03:08:03.931Z,11.08
2019-02-20T03:10:31.963Z,11.10
2019-02-20T03:12:59.979Z,11.35
2019-02-20T03:15:28.008Z,11.00
2019-02-20T03:17:56.105Z,12.25
2019-02-20T03:20:24.419Z,10.35
2019-02-20T03:22:52.431Z,11.48
2019-02-20T03:25:20.468Z,11.05
2019-02-20T03:27:48.485Z,11.75
2019-02-20T03:30:16.545Z,11.33
2019-02-20T03:32:44.620Z,11.00
2019-02-20T03:35:12.877Z,11.05
2019-02-20T03:37:40.909Z,11.08
2019-02-20T03:40:09.220Z,12.03
2019-02-20T03:42:37.245Z,13.30
2019-02-20T03:45:06.041Z,11.73
2019-02-20T03:47:34.057Z,11.43
2019-02-20T03:50:02.076Z,12.28
2019-02-20T03:52:30.092Z,12.05
2019-02-20T03:54:58.147Z,10.55
2019-02-20T03:57:26.280Z,10.93
2019-02-20T03:59:54.538Z,10.98
2019-02-20T04:02:22.627Z,10.90
2019-02-20T04:04:51.780Z,12.40
2019-02-20T04:07:19.824Z,11.95
2019-02-20T04:09:47.865Z,11.97
2019-02-20T04:12:16.138Z,11.25
2019-02-20T04:14:44.165Z,12.45
2019-02-20T04:17:12.213Z,12.28
2019-02-20T04:19:40.304Z,12.25
2019-02-20T04:22:08.335Z,12.07
2019-02-20T04:24:36.379Z,12.37
2019-02-20T04:27:04.409Z,12.37
2019-02-20T04:29:32.668Z,13.25
2019-02-20T04:32:00.696Z,12.80
2019-02-20T04:34:28.728Z,13.45
2019-02-20T04:36:56.752Z,13.53
2019-02-20T04:39:24.771Z,12.05
2019-02-20T04:41:52.803Z,12.28
2019-02-20T04:44:20.839Z,12.10
2019-02-20T04:46:48.926Z,12.73
2019-02-20T04:49:17.187Z,11.45
2019-02-20T04:51:45.211Z,11.40
2019-02-20T04:54:13.995Z,11.12
2019-02-20T04:56:42.066Z,11.35
2019-02-20T04:59:10.088Z,11.33
2019-02-20T05:01:39.187Z,12.45
2019-02-20T05:04:07.471Z,11.25
2019-02-20T05:06:35.487Z,11.85
2019-02-20T05:09:04.658Z,10.45
2019-02-20T05:11:34.312Z,11.05
2019-02-20T05:14:02.367Z,10.58
2019-02-20T05:16:30.426Z,10.28
2019-02-20T05:18:58.427Z,10.08
2019-02-20T05:21:26.523Z,10.70
2019-02-20T05:23:54.549Z,10.15
2019-02-20T05:26:22.580Z,10.15
2019-02-20T05:28:51.576Z,11.18
2019-02-20T05:31:19.840Z,10.82
2019-02-20T05:33:47.867Z,10.53
2019-02-20T05:36:15.888Z,9.75
2019-02-20T05:38:43.908Z,10.23
2019-02-20T05:41:11.931Z,12.13
2019-02-20T05:43:39.968Z,10.35
2019-02-20T05:46:08.240Z,10.08
2019-02-20T05:48:37.324Z,8.95
2019-02-20T05:51:05.342Z,9.80
2019-02-20T05:53:33.368Z,9.75
2019-02-20T05:56:01.393Z,9.55
2019-02-20T05:58:29.458Z,9.48
2019-02-20T06:00:57.475Z,10.60
2019-02-20T06:03:25.499Z,10.45
2019-02-20T06:05:53.517Z,9.98
2019-02-20T06:08:21.551Z,10.75
2019-02-20T06:10:49.575Z,10.88
2019-02-20T06:13:17.603Z,11.05
2019-02-20T06:15:45.857Z,12.93
2019-02-20T06:18:14.114Z,13.13
2019-02-20T06:20:42.460Z,12.00
2019-02-20T06:23:10.493Z,13.05
2019-02-20T06:25:39.324Z,13.38
2019-02-20T06:28:07.343Z,14.73
2019-02-20T06:30:35.372Z,12.88
2019-02-20T06:33:03.410Z,12.23
2019-02-20T06:35:31.443Z,14.38
2019-02-20T06:37:59.523Z,15.58
2019-02-20T06:40:27.569Z,14.98
2019-02-20T06:42:55.815Z,14.63
2019-02-20T06:45:23.909Z,13.20
2019-02-20T06:47:51.957Z,14.40
2019-02-20T06:50:19.975Z,13.65
2019-02-20T06:52:48.015Z,12.37
2019-02-20T06:55:16.022Z,12.13
2019-02-20T06:57:44.271Z,12.28
2019-02-20T07:00:13.164Z,12.85
2019-02-20T07:02:41.184Z,13.22
2019-02-20T07:05:22.795Z,12.10
2019-02-20T07:07:56.564Z,11.68
2019-02-20T07:10:37.983Z,11.65
2019-02-20T07:13:07.566Z,11.70
2019-02-20T07:15:45.857Z,12.13
2019-02-20T07:18:18.152Z,11.88
2019-02-20T07:21:02.639Z,11.68
2019-02-20T07:23:39.300Z,12.23
2019-02-20T07:26:14.672Z,11.53
2019-02-20T07:28:51.359Z,10.82
2019-02-20T07:31:19.384Z,11.08
2019-02-20T07:33:47.656Z,13.15
2019-02-20T07:36:15.679Z,13.22
2019-02-20T07:38:43.700Z,12.25
2019-02-20T07:41:11.980Z,11.53
2019-02-20T07:43:39.995Z,11.38
2019-02-20T07:46:08.015Z,12.70
2019-02-20T07:48:36.269Z,15.40
2019-02-20T07:51:04.300Z,16.40
2019-02-20T07:53:32.321Z,15.63
2019-02-20T07:56:00.336Z,15.68
2019-02-20T07:58:28.357Z,14.53
2019-02-20T08:00:56.378Z,12.37
2019-02-20T08:03:24.404Z,11.40
2019-02-20T08:05:52.420Z,9.90
2019-02-20T08:08:20.664Z,9.00
2019-02-20T08:10:48.684Z,9.15
2019-02-20T08:13:17.778Z,10.63
2019-02-20T08:15:45.799Z,9.43
2019-02-20T08:18:13.822Z,8.85
2019-02-20T08:20:42.059Z,9.48
2019-02-20T08:23:10.077Z,8.68
2019-02-20T08:25:38.339Z,8.88
2019-02-20T08:28:06.353Z,10.30
2019-02-20T08:30:34.367Z,9.25
2019-02-20T08:33:02.427Z,12.15
2019-02-20T08:35:30.475Z,13.50
2019-02-20T08:37:58.495Z,11.75
2019-02-20T08:40:26.516Z,10.98
2019-02-20T08:42:54.763Z,9.38
2019-02-20T08:45:22.785Z,8.95
2019-02-20T08:47:51.023Z,8.98
2019-02-20T08:51:38.767Z,8.40
2019-02-20T08:54:08.055Z,9.43
2019-02-20T08:56:38.547Z,9.13
2019-02-20T08:59:07.847Z,9.25
2019-02-20T09:01:37.167Z,8.70
2019-02-20T09:04:06.447Z,8.75
2019-02-20T09:06:35.799Z,8.68
2019-02-20T09:09:06.232Z,9.43
2019-02-20T09:11:36.383Z,9.23
2019-02-20T09:14:07.195Z,9.23
2019-02-20T09:16:36.493Z,9.65
2019-02-20T09:19:06.067Z,9.20
2019-02-20T09:21:36.653Z,9.45
2019-02-20T09:24:05.952Z,9.78
2019-02-20T09:26:35.264Z,10.03
2019-02-20T09:29:04.704Z,10.45
2019-02-20T09:31:34.008Z,10.28
2019-02-20T09:34:03.315Z,10.78
2019-02-20T09:36:32.621Z,11.12
2019-02-20T09:39:21.488Z,11.38
2019-02-20T09:41:50.805Z,12.18
2019-02-20T09:44:20.100Z,10.68
2019-02-20T09:46:49.487Z,11.93
2019-02-20T09:49:19.771Z,11.55
2019-02-20T09:51:49.066Z,12.03
2019-02-20T09:54:18.366Z,12.30
2019-02-20T09:56:47.663Z,12.07
2019-02-20T09:59:17.952Z,12.93
2019-02-20T10:01:47.260Z,13.08
2019-02-20T10:04:16.800Z,12.93
2019-02-20T10:06:46.079Z,13.83
2019-02-20T10:09:16.334Z,13.58
2019-02-20T10:11:46.048Z,13.60
2019-02-20T10:14:15.364Z,13.88
2019-02-20T10:16:44.656Z,14.25
2019-02-20T10:19:13.948Z,14.85
2019-02-20T10:21:43.252Z,15.72
2019-02-20T10:24:12.587Z,15.60
2019-02-20T10:26:41.885Z,14.93
2019-02-20T10:29:11.171Z,15.25
2019-02-20T10:31:40.464Z,15.53
2019-02-20T10:34:11.179Z,15.20
2019-02-20T10:36:41.619Z,15.70
2019-02-20T10:39:10.916Z,16.60
2019-02-20T10:41:40.208Z,16.02
2019-02-20T10:44:09.525Z,16.27
2019-02-20T10:46:39.527Z,15.03
2019-02-20T10:49:08.829Z,16.05
2019-02-20T10:51:38.126Z,17.70
2019-02-20T10:54:07.436Z,18.05
2019-02-20T10:56:37.048Z,18.92
2019-02-20T10:59:06.334Z,17.98
2019-02-20T11:01:35.640Z,17.27
2019-02-20T11:04:04.936Z,17.98
2019-02-20T11:06:34.238Z,17.25
2019-02-20T11:09:04.781Z,17.00
2019-02-20T11:11:35.689Z,16.97
2019-02-20T11:14:05.149Z,16.57
2019-02-20T11:16:34.518Z,15.63
2019-02-20T11:19:03.849Z,16.40
2019-02-20T11:21:33.152Z,16.50
2019-02-20T11:24:02.435Z,16.55
2019-02-20T11:26:31.969Z,15.88
2019-02-20T11:29:01.260Z,15.93
2019-02-20T11:31:31.843Z,16.42
2019-02-20T11:34:01.849Z,16.70
2019-02-20T11:36:31.324Z,16.82
2019-02-20T11:39:01.683Z,16.45
2019-02-20T11:41:32.598Z,16.55
2019-02-20T11:44:01.901Z,16.70
2019-02-20T11:46:31.187Z,16.97
2019-02-20T11:49:00.711Z,16.48
2019-02-20T11:51:30.023Z,15.72
2019-02-20T11:53:59.591Z,14.58
2019-02-20T11:56:28.882Z,15.30
2019-02-20T11:58:58.176Z,15.50
2019-02-20T12:01:27.504Z,16.02
2019-02-20T12:03:56.885Z,15.18
2019-02-20T12:06:26.203Z,15.40
2019-02-20T12:08:55.732Z,15.63
2019-02-20T12:11:25.184Z,15.25
2019-02-20T12:13:54.455Z,15.18
2019-02-20T12:16:23.757Z,13.70
2019-02-20T12:18:53.060Z,13.53
2019-02-20T12:21:22.400Z,14.00
2019-02-20T12:23:51.695Z,14.60
2019-02-20T12:26:20.987Z,15.53
2019-02-20T12:28:50.291Z,16.52
2019-02-20T12:31:21.838Z,16.05
2019-02-20T12:33:52.288Z,15.98
2019-02-20T12:36:22.776Z,14.87
2019-02-20T12:38:53.057Z,16.20
2019-02-20T12:41:22.583Z,16.27
2019-02-20T12:43:51.878Z,16.80
2019-02-20T12:46:21.404Z,16.27
2019-02-20T12:48:50.687Z,15.18
2019-02-20T12:51:19.983Z,15.75
2019-02-20T12:53:49.517Z,16.40
2019-02-20T12:56:18.915Z,17.20
2019-02-20T12:58:48.215Z,17.67
2019-02-20T13:01:17.505Z,16.32
2019-02-20T13:03:47.062Z,15.95
2019-02-20T13:06:16.401Z,15.80
2019-02-20T13:08:45.949Z,16.35
2019-02-20T13:11:15.240Z,16.55
2019-02-20T13:13:45.521Z,14.80
2019-02-20T13:16:14.803Z,14.75
2019-02-20T13:18:45.375Z,14.60
2019-02-20T13:21:14.662Z,12.15
2019-02-20T13:23:45.410Z,15.35
2019-02-20T13:26:14.952Z,14.90
2019-02-20T13:28:44.251Z,15.88
2019-02-20T13:31:13.549Z,14.38
2019-02-20T13:33:42.853Z,15.28
2019-02-20T13:36:13.440Z,16.23
2019-02-20T13:38:42.748Z,15.15
2019-02-20T13:41:12.622Z,15.35
2019-02-20T13:43:42.036Z,15.13
2019-02-20T13:46:11.322Z,15.00
2019-02-20T13:48:40.845Z,14.53
2019-02-20T13:51:10.148Z,15.03
2019-02-20T13:53:46.231Z,15.20
2019-02-20T13:56:10.477Z,13.80
2019-02-20T13:58:40.015Z,13.72
2019-02-20T14:01:09.564Z,13.85
2019-02-20T14:03:38.859Z,15.18
2019-02-20T14:06:08.148Z,14.40
2019-02-20T14:08:37.687Z,13.78
2019-02-20T14:11:07.427Z,13.83
2019-02-20T14:13:36.726Z,14.00
2019-02-20T14:16:06.271Z,14.35
2019-02-20T14:18:35.784Z,13.93
2019-02-20T14:21:05.076Z,13.93
2019-02-20T14:23:34.368Z,13.70
2019-02-20T14:26:03.647Z,13.43
2019-02-20T14:28:33.257Z,14.85
2019-02-20T14:31:02.536Z,14.38
2019-02-20T14:33:32.004Z,14.30
2019-02-20T14:36:01.525Z,13.93
2019-02-20T14:38:32.033Z,13.35
2019-02-20T14:41:01.599Z,14.30
2019-02-20T14:43:30.967Z,13.60
2019-02-20T14:46:00.254Z,13.18
2019-02-20T14:48:29.544Z,13.40
2019-02-20T14:50:59.069Z,14.40
2019-02-20T14:53:28.369Z,13.22
2019-02-20T14:55:57.659Z,12.68
2019-02-20T14:58:27.560Z,13.80
2019-02-20T15:00:56.857Z,13.40
2019-02-20T15:03:26.379Z,12.47
2019-02-20T15:05:55.920Z,12.75
2019-02-20T15:08:25.217Z,12.05
2019-02-20T15:10:55.483Z,13.00
2019-02-20T15:13:24.952Z,12.82
2019-02-20T15:15:54.260Z,12.33
2019-02-20T15:18:23.555Z,12.40
2019-02-20T15:20:53.837Z,11.57
2019-02-20T15:23:23.364Z,11.48
2019-02-20T15:25:52.656Z,11.03
2019-02-20T15:28:22.333Z,11.73
2019-02-20T15:30:51.632Z,11.65
2019-02-20T15:33:20.975Z,11.48
2019-02-20T15:35:50.309Z,10.90
2019-02-20T15:38:19.679Z,10.18
2019-02-20T15:40:48.968Z,9.85
2019-02-20T15:43:18.655Z,10.50
2019-02-20T15:45:48.185Z,10.50
2019-02-20T15:48:23.127Z,10.45
2019-02-20T15:50:48.465Z,10.68
2019-02-20T15:53:17.757Z,9.23
2019-02-20T15:55:47.063Z,10.15
2019-02-20T15:58:16.847Z,9.65
2019-02-20T16:00:46.628Z,9.20
2019-02-20T16:03:15.924Z,8.70
2019-02-20T16:05:45.211Z,8.98
2019-02-20T16:08:14.575Z,8.90
2019-02-20T16:10:44.087Z,9.13
2019-02-20T16:13:13.379Z,9.55
2019-02-20T16:15:42.669Z,9.63
2019-02-20T16:18:13.724Z,9.25
2019-02-20T16:20:43.020Z,8.85
2019-02-20T16:23:12.303Z,8.50
2019-02-20T16:25:41.600Z,7.97
2019-02-20T16:28:10.879Z,8.23
2019-02-20T16:30:40.576Z,8.85
2019-02-20T16:33:09.863Z,8.70
2019-02-20T16:35:39.159Z,8.63
2019-02-20T16:38:08.468Z,8.23
2019-02-20T16:40:38.120Z,7.70
2019-02-20T16:43:07.415Z,8.05
2019-02-20T16:45:36.967Z,8.68
2019-02-20T16:48:06.256Z,7.67
2019-02-20T16:50:35.537Z,8.45
2019-02-20T16:53:05.091Z,8.70
2019-02-20T16:55:34.372Z,10.45
2019-02-20T16:58:04.058Z,10.35
2019-02-20T17:00:33.935Z,10.90
2019-02-20T17:03:03.332Z,10.82
2019-02-20T17:05:32.712Z,9.65
2019-02-20T17:08:02.348Z,8.30
2019-02-20T17:10:31.668Z,7.47
2019-02-20T17:13:00.955Z,7.58
2019-02-20T17:15:30.740Z,7.35
2019-02-20T17:18:00.124Z,7.60
2019-02-20T17:20:29.459Z,7.53
2019-02-20T17:22:58.855Z,7.95
2019-02-20T17:25:28.179Z,8.30
2019-02-20T17:28:05.509Z,7.55
2019-02-20T17:30:29.816Z,7.62
2019-02-20T17:32:59.700Z,8.20
2019-02-20T17:35:29.268Z,6.95
2019-02-20T17:37:58.567Z,7.53
2019-02-20T17:40:27.844Z,7.30
2019-02-20T17:42:57.124Z,7.30
2019-02-20T17:45:26.812Z,8.58
2019-02-20T17:47:56.094Z,10.13
2019-02-20T17:50:26.525Z,11.38
2019-02-20T17:52:55.825Z,10.05
2019-02-20T17:55:25.124Z,10.35
2019-02-20T17:57:54.407Z,10.25
2019-02-20T18:00:25.720Z,10.80
2019-02-20T18:02:55.012Z,11.03
2019-02-20T18:05:25.274Z,11.68
2019-02-20T18:07:54.802Z,11.95
2019-02-20T18:10:24.094Z,11.83
2019-02-20T18:12:54.624Z,10.82
2019-02-20T18:15:23.920Z,10.03
2019-02-20T18:17:53.227Z,10.93
2019-02-20T18:20:22.753Z,11.08
2019-02-20T18:22:52.036Z,12.07
2019-02-20T18:25:21.562Z,14.60
2019-02-20T18:27:50.848Z,15.28
2019-02-20T18:30:20.136Z,16.37
2019-02-20T18:32:49.442Z,18.48
2019-02-20T18:35:19.265Z,19.98
2019-02-20T18:37:48.629Z,20.52
2019-02-20T18:40:18.218Z,21.10
2019-02-20T18:42:47.489Z,20.30
2019-02-20T18:45:16.777Z,20.08
2019-02-20T18:47:46.129Z,20.70
2019-02-20T18:50:16.089Z,19.32
2019-02-20T18:52:45.343Z,16.15
2019-02-20T18:55:14.899Z,16.82
2019-02-20T18:57:44.241Z,16.25
2019-02-20T19:00:16.220Z,15.70
2019-02-20T19:02:45.902Z,17.27
2019-02-20T19:05:15.339Z,17.65
2019-02-20T19:07:44.703Z,16.50
2019-02-20T19:10:29.376Z,16.52
2019-02-20T19:13:04.552Z,16.70
2019-02-20T19:15:52.835Z,17.55
2019-02-20T19:18:42.896Z,16.20
2019-02-20T19:21:20.529Z,16.00
2019-02-20T19:23:58.906Z,16.07
2019-02-20T19:26:36.960Z,14.60
2019-02-20T19:29:17.394Z,13.40
2019-02-20T19:31:49.824Z,13.18
2019-02-20T19:34:24.866Z,15.65
2019-02-20T19:37:23.955Z,15.83
2019-02-20T19:40:07.741Z,17.65
2019-02-20T19:42:45.875Z,17.57
2019-02-20T19:45:42.344Z,20.85
2019-02-20T19:48:39.020Z,22.37
2019-02-20T19:51:29.696Z,20.23
2019-02-20T19:54:07.388Z,18.32
2019-02-20T19:57:00.736Z,18.60
2019-02-20T19:59:44.673Z,19.15
2019-02-20T20:02:34.201Z,18.52
2019-02-20T20:05:26.980Z,18.02
2019-02-20T20:08:08.357Z,17.40
2019-02-20T20:10:58.828Z,16.93
2019-02-20T20:13:45.317Z,16.17
2019-02-20T20:16:20.335Z,17.20
2019-02-20T20:19:15.177Z,17.37
2019-02-20T20:24:28.494Z,17.45
2019-02-20T20:27:06.777Z,17.02
2019-02-20T20:29:50.805Z,16.42
2019-02-20T20:32:27.419Z,17.17
2019-02-20T20:35:05.685Z,17.52
2019-02-20T20:37:53.054Z,17.52
2019-02-20T20:40:34.206Z,17.82
2019-02-20T20:43:12.388Z,17.77
2019-02-20T20:46:11.429Z,18.30
2019-02-20T20:48:52.805Z,17.15
2019-02-20T20:51:30.900Z,17.25
2019-02-20T20:54:20.016Z,16.62
2019-02-20T20:57:08.548Z,17.25
2019-02-20T20:59:40.920Z,17.27
2019-02-20T21:02:13.208Z,16.48
2019-02-20T21:05:18.786Z,17.27
2019-02-20T21:07:53.580Z,16.85
2019-02-20T21:10:38.024Z,16.87
2019-02-20T21:15:55.408Z,17.45
2019-02-20T21:21:15.712Z,17.57
2019-02-20T21:23:56.924Z,17.32
2019-02-20T21:26:32.242Z,16.73
2019-02-20T21:29:12.958Z,17.65
2019-02-20T21:31:57.132Z,17.62
2019-02-20T21:34:44.514Z,19.12
2019-02-20T21:37:28.695Z,18.12
2019-02-20T21:40:09.348Z,18.62
2019-02-20T21:42:44.572Z,16.75
2019-02-20T21:45:28.804Z,16.50
2019-02-20T21:48:01.171Z,17.07
2019-02-20T21:50:42.585Z,16.27
2019-02-20T21:53:39.494Z,16.12
2019-02-20T21:56:11.868Z,16.52
2019-02-20T21:59:02.292Z,15.80
2019-02-20T22:01:37.613Z,15.95
2019-02-20T22:04:26.488Z,15.95
2019-02-20T22:07:14.139Z,15.48
2019-02-20T22:09:58.387Z,15.48
2019-02-20T22:12:50.944Z,15.98
2019-02-20T22:15:33.220Z,14.23
2019-02-20T22:18:17.648Z,15.48
2019-02-20T22:23:30.146Z,14.23
2019-02-20T22:26:05.188Z,15.13
2019-02-20T22:28:38.218Z,16.40
2019-02-20T22:31:19.337Z,16.80
2019-02-20T22:34:09.085Z,15.20
2019-02-20T22:37:03.684Z,15.38
2019-02-20T22:40:10.584Z,14.25
2019-02-20T22:43:05.084Z,15.13
2019-02-20T22:45:43.328Z,15.80
2019-02-20T22:48:18.424Z,15.20
2019-02-20T22:51:07.412Z,15.50
2019-02-20T22:53:51.879Z,15.25
2019-02-20T22:56:46.639Z,13.83
2019-02-20T23:01:51.744Z,13.38
2019-02-20T23:04:24.133Z,13.75
2019-02-20T23:07:05.210Z,14.13
2019-02-20T23:13:40.725Z,13.78
2019-02-20T23:16:10.945Z,14.78
2019-02-20T23:18:41.266Z,13.08
2019-02-20T23:21:12.758Z,14.53
2019-02-20T23:23:43.165Z,15.05
2019-02-20T23:26:13.227Z,14.83
2019-02-20T23:28:43.426Z,14.60
2019-02-20T23:31:13.525Z,15.75
2019-02-20T23:33:43.775Z,14.95
2019-02-20T23:36:13.897Z,15.47
2019-02-20T23:38:44.345Z,15.13
2019-02-20T23:41:14.866Z,15.95
2019-02-20T23:43:44.362Z,16.00
2019-02-20T23:46:14.142Z,14.85
2019-02-20T23:48:43.504Z,15.18
2019-02-20T23:51:13.152Z,15.38
2019-02-20T23:53:42.507Z,14.93
2019-02-20T23:56:12.029Z,13.10
